createdAt,value
2022-10-26T00:01:15.221Z,99725.28
2022-10-26T00:03:44.798Z,99733.59
2022-10-26T00:06:15.675Z,99736.50
2022-10-26T00:08:43.010Z,99725.75
2022-10-26T00:11:11.481Z,99738.97
2022-10-26T00:13:40.251Z,99754.25
2022-10-26T00:16:14.647Z,99755.66
2022-10-26T00:18:42.319Z,99759.16
2022-10-26T00:21:11.220Z,99775.28
2022-10-26T00:23:38.308Z,99776.97
2022-10-26T00:26:05.923Z,99767.03
2022-10-26T00:28:33.025Z,99766.81
2022-10-26T00:31:06.799Z,99778.97
2022-10-26T00:33:34.320Z,99777.72
2022-10-26T00:36:01.356Z,99768.84
2022-10-26T00:38:28.382Z,99764.88
2022-10-26T00:40:55.363Z,99760.09
2022-10-26T00:43:22.200Z,99761.53
2022-10-26T00:45:55.437Z,99767.50
2022-10-26T00:48:30.007Z,99753.84
2022-10-26T00:51:02.080Z,99745.78
2022-10-26T00:53:30.099Z,99745.78
2022-10-26T00:55:58.116Z,99762.13
2022-10-26T00:58:26.092Z,99758.63
2022-10-26T01:00:53.646Z,99758.03
2022-10-26T01:03:25.035Z,99745.84
2022-10-26T01:05:57.494Z,99755.78
2022-10-26T01:08:28.071Z,99757.63
2022-10-26T01:10:58.063Z,99743.84
2022-10-26T01:13:28.510Z,99754.59
2022-10-26T01:16:38.377Z,99751.28
2022-10-26T01:19:32.347Z,99748.00
2022-10-26T01:22:28.197Z,99752.31
2022-10-26T01:25:19.123Z,99757.69
2022-10-26T01:27:49.087Z,99764.13
2022-10-26T01:30:31.281Z,99747.19
2022-10-26T01:33:18.754Z,99746.38
2022-10-26T01:36:04.027Z,99738.31
2022-10-26T01:38:44.278Z,99734.81
2022-10-26T01:41:29.530Z,99733.97
2022-10-26T01:44:03.070Z,99717.88
2022-10-26T01:46:39.806Z,99707.13
2022-10-26T01:49:11.706Z,99716.19
2022-10-26T01:51:43.023Z,99697.84
2022-10-26T01:54:10.291Z,99690.59
2022-10-26T01:56:41.034Z,99700.53
2022-10-26T01:59:40.946Z,99695.38
2022-10-26T02:02:33.511Z,99684.88
2022-10-26T02:05:15.689Z,99702.81
2022-10-26T02:08:04.926Z,99705.50
2022-10-26T02:11:12.487Z,99715.44
2022-10-26T02:13:56.027Z,99717.09
2022-10-26T02:16:58.271Z,99714.19
2022-10-26T02:19:39.563Z,99719.56
2022-10-26T02:22:10.803Z,99727.38
2022-10-26T02:24:39.874Z,99722.03
2022-10-26T02:27:11.438Z,99716.66
2022-10-26T02:29:40.355Z,99725.09
2022-10-26T02:32:08.951Z,99721.56
2022-10-26T02:34:38.080Z,99712.50
2022-10-26T02:37:06.806Z,99729.44
2022-10-26T02:39:36.244Z,99726.50
2022-10-26T02:42:07.128Z,99735.16
2022-10-26T02:44:50.249Z,99724.41
2022-10-26T02:47:19.352Z,99727.72
2022-10-26T02:49:46.765Z,99738.47
2022-10-26T02:52:46.926Z,99745.69
2022-10-26T02:55:34.725Z,99731.44
2022-10-26T02:58:09.938Z,99731.44
2022-10-26T03:00:36.923Z,99732.25
2022-10-26T03:03:05.187Z,99733.53
2022-10-26T03:05:33.107Z,99733.53
2022-10-26T03:08:00.614Z,99736.66
2022-10-26T03:10:27.758Z,99746.59
2022-10-26T03:12:54.733Z,99752.16
2022-10-26T03:15:21.984Z,99758.56
2022-10-26T03:17:49.261Z,99761.50
2022-10-26T03:20:16.481Z,99759.63
2022-10-26T03:22:43.529Z,99767.69
2022-10-26T03:25:10.575Z,99772.22
2022-10-26T03:27:37.965Z,99758.56
2022-10-26T03:30:05.727Z,99758.81
2022-10-26T03:32:32.757Z,99749.69
2022-10-26T03:34:59.815Z,99757.97
2022-10-26T03:37:27.303Z,99748.88
2022-10-26T03:39:54.260Z,99738.13
2022-10-26T03:42:21.222Z,99733.81
2022-10-26T03:44:48.338Z,99734.84
2022-10-26T03:47:15.286Z,99732.38
2022-10-26T03:49:42.296Z,99719.38
2022-10-26T03:52:09.318Z,99721.25
2022-10-26T03:54:36.295Z,99732.41
2022-10-26T03:57:03.214Z,99741.53
2022-10-26T03:59:30.180Z,99739.06
2022-10-26T04:01:58.001Z,99741.97
2022-10-26T04:04:25.474Z,99750.44
2022-10-26T04:06:52.564Z,99752.31
2022-10-26T04:09:19.523Z,99756.88
2022-10-26T04:11:46.444Z,99748.22
2022-10-26T04:14:13.376Z,99756.06
2022-10-26T04:16:40.389Z,99744.50
2022-10-26T04:19:07.405Z,99733.16
2022-10-26T04:21:35.347Z,99741.22
2022-10-26T04:24:02.834Z,99735.84
2022-10-26T04:26:29.759Z,99739.56
2022-10-26T04:28:56.750Z,99750.31
2022-10-26T04:31:24.595Z,99747.63
2022-10-26T04:33:51.513Z,99746.00
2022-10-26T04:36:18.417Z,99746.19
2022-10-26T04:38:45.453Z,99737.94
2022-10-26T04:41:12.387Z,99746.81
2022-10-26T04:43:39.333Z,99738.53
2022-10-26T04:46:06.319Z,99723.47
2022-10-26T04:48:33.432Z,99716.22
2022-10-26T04:51:01.175Z,99726.16
2022-10-26T04:53:28.622Z,99731.50
2022-10-26T04:56:03.142Z,99738.94
2022-10-26T04:58:30.533Z,99740.00
2022-10-26T05:00:57.525Z,99734.63
2022-10-26T05:03:24.501Z,99723.88
2022-10-26T05:05:51.530Z,99727.63
2022-10-26T05:08:18.479Z,99728.44
2022-10-26T05:10:50.282Z,99727.84
2022-10-26T05:13:17.732Z,99723.28
2022-10-26T05:15:44.792Z,99724.34
2022-10-26T05:18:11.966Z,99736.72
2022-10-26T05:20:38.981Z,99729.69
2022-10-26T05:23:10.370Z,99740.44
2022-10-26T05:25:38.783Z,99752.81
2022-10-26T05:28:09.704Z,99753.88
2022-10-26T05:30:37.790Z,99745.81
2022-10-26T05:33:05.783Z,99762.50
2022-10-26T05:35:33.330Z,99765.19
2022-10-26T05:38:06.256Z,99770.16
2022-10-26T05:40:33.367Z,99779.22
2022-10-26T05:43:02.048Z,99786.25
2022-10-26T05:45:29.500Z,99792.81
2022-10-26T05:47:58.720Z,99788.91
2022-10-26T05:50:29.350Z,99802.69
2022-10-26T05:52:56.262Z,99788.63
2022-10-26T05:55:23.963Z,99797.69
2022-10-26T05:57:51.791Z,99794.53
2022-10-26T06:00:23.028Z,99798.44
2022-10-26T06:06:05.317Z,99813.06
2022-10-26T06:08:34.811Z,99812.84
2022-10-26T06:11:03.024Z,99815.53
2022-10-26T06:13:30.439Z,99819.06
2022-10-26T06:16:14.407Z,99817.41
2022-10-26T06:19:02.867Z,99818.44
2022-10-26T06:22:01.436Z,99817.84
2022-10-26T06:25:22.438Z,99820.53
2022-10-26T06:28:14.874Z,99824.22
2022-10-26T06:30:41.950Z,99842.34
2022-10-26T06:33:24.931Z,99835.13
2022-10-26T06:36:16.188Z,99834.69
2022-10-26T06:38:44.633Z,99838.78
2022-10-26T06:41:16.285Z,99838.16
2022-10-26T06:43:43.700Z,99852.41
2022-10-26T06:46:17.137Z,99854.06
2022-10-26T06:49:24.759Z,99862.13
2022-10-26T06:51:58.435Z,99869.38
2022-10-26T06:54:53.307Z,99864.00
2022-10-26T06:57:34.880Z,99860.72
2022-10-26T07:00:21.464Z,99868.97
2022-10-26T07:02:50.093Z,99866.69
2022-10-26T07:05:17.815Z,99864.00
2022-10-26T07:07:47.950Z,99865.28
2022-10-26T07:10:15.817Z,99859.09
2022-10-26T07:12:42.811Z,99859.09
2022-10-26T07:15:10.330Z,99869.16
2022-10-26T07:17:49.102Z,99875.38
2022-10-26T07:20:19.695Z,99895.41
2022-10-26T07:22:56.453Z,99902.44
2022-10-26T07:25:25.541Z,99907.00
2022-10-26T07:27:52.565Z,99910.50
2022-10-26T07:30:19.584Z,99908.63
2022-10-26T07:32:46.708Z,99914.81
2022-10-26T07:35:14.583Z,99922.69
2022-10-26T07:37:41.517Z,99925.56
2022-10-26T07:40:08.843Z,99935.31
2022-10-26T07:42:37.053Z,99943.16
2022-10-26T07:45:04.815Z,99939.19
2022-10-26T07:47:31.733Z,99939.81
2022-10-26T07:49:58.681Z,99944.97
2022-10-26T07:52:25.628Z,99941.00
2022-10-26T07:54:52.606Z,99945.34
2022-10-26T07:57:19.637Z,99943.28
2022-10-26T07:59:46.721Z,99937.91
2022-10-26T08:02:13.866Z,99946.97
2022-10-26T08:04:43.874Z,99932.94
2022-10-26T08:07:10.842Z,99939.16
2022-10-26T08:09:37.865Z,99942.66
2022-10-26T08:12:05.207Z,99928.16
2022-10-26T08:14:32.127Z,99939.75
2022-10-26T08:16:59.050Z,99942.44
2022-10-26T08:19:26.152Z,99940.78
2022-10-26T08:21:53.093Z,99932.53
2022-10-26T08:24:20.017Z,99927.75
2022-10-26T08:26:46.991Z,99936.63
2022-10-26T08:29:13.999Z,99941.56
2022-10-26T08:31:40.923Z,99934.94
2022-10-26T08:34:08.059Z,99939.88
2022-10-26T08:36:35.054Z,99942.97
2022-10-26T08:39:01.983Z,99941.69
2022-10-26T08:41:52.715Z,99951.56
2022-10-26T08:44:35.160Z,99959.22
2022-10-26T08:47:20.735Z,99958.75
2022-10-26T08:50:05.065Z,99969.47
2022-10-26T08:52:51.258Z,99963.44
2022-10-26T08:55:28.925Z,99971.66
2022-10-26T08:57:56.739Z,99980.72
2022-10-26T09:00:25.979Z,99987.06
2022-10-26T09:02:54.059Z,99980.81
2022-10-26T09:05:41.026Z,99984.50
2022-10-26T09:08:31.325Z,99985.63
2022-10-26T09:11:08.645Z,100006.00
2022-10-26T09:13:45.323Z,99994.50
2022-10-26T09:16:36.432Z,100003.50
2022-10-26T09:19:24.041Z,100006.28
2022-10-26T09:22:13.662Z,100016.06
2022-10-26T09:24:56.222Z,100010.97
2022-10-26T09:27:32.586Z,100016.66
2022-10-26T09:30:12.292Z,100016.91
2022-10-26T09:32:45.117Z,100022.84
2022-10-26T09:35:42.200Z,100032.00
2022-10-26T09:38:43.380Z,100037.47
2022-10-26T09:41:36.934Z,100042.94
2022-10-26T09:44:44.899Z,100036.28
2022-10-26T09:47:38.165Z,100039.59
2022-10-26T09:50:28.135Z,100044.78
2022-10-26T09:52:55.199Z,100034.22
2022-10-26T09:55:22.968Z,100042.34
2022-10-26T09:57:56.321Z,100034.50
2022-10-26T10:00:27.229Z,100043.31
2022-10-26T10:02:56.950Z,100041.88
2022-10-26T10:05:50.264Z,100038.03
2022-10-26T10:08:23.276Z,100044.13
2022-10-26T10:11:12.520Z,100051.06
2022-10-26T10:13:45.566Z,100045.31
2022-10-26T10:16:24.101Z,100059.50
2022-10-26T10:18:59.933Z,100072.28
2022-10-26T10:21:45.506Z,100062.53
2022-10-26T10:24:33.834Z,100061.59
2022-10-26T10:27:16.944Z,100072.25
2022-10-26T10:30:22.520Z,100067.28
2022-10-26T10:33:13.461Z,100073.50
2022-10-26T10:35:50.675Z,100066.63
2022-10-26T10:38:20.913Z,100061.47
2022-10-26T10:41:03.735Z,100076.59
2022-10-26T10:43:30.994Z,100067.59
2022-10-26T10:45:59.870Z,100071.84
2022-10-26T10:48:29.335Z,100070.41
2022-10-26T10:51:12.246Z,100078.94
2022-10-26T10:53:56.696Z,100085.34
2022-10-26T10:56:38.523Z,100092.72
2022-10-26T10:59:30.740Z,100103.91
2022-10-26T11:02:44.723Z,100099.66
2022-10-26T11:05:40.196Z,100098.06
2022-10-26T11:08:29.055Z,100092.09
2022-10-26T11:11:18.747Z,100101.16
2022-10-26T11:13:51.537Z,100100.91
2022-10-26T11:16:37.411Z,100110.34
2022-10-26T11:19:27.207Z,100107.38
2022-10-26T11:21:55.605Z,100108.69
2022-10-26T11:24:45.442Z,100114.69
2022-10-26T11:27:20.053Z,100115.91
2022-10-26T11:30:15.224Z,100113.72
2022-10-26T11:32:50.328Z,100111.81
2022-10-26T11:35:36.778Z,100102.06
2022-10-26T11:38:56.400Z,100112.31
2022-10-26T11:42:00.903Z,100116.44
2022-10-26T11:44:43.294Z,100116.75
2022-10-26T11:47:19.490Z,100116.91
2022-10-26T11:50:04.785Z,100115.78
2022-10-26T11:53:00.832Z,100124.72
2022-10-26T11:55:29.372Z,100120.34
2022-10-26T11:57:57.944Z,100117.88
2022-10-26T12:00:26.959Z,100118.38
2022-10-26T12:03:10.459Z,100118.94
2022-10-26T12:05:40.301Z,100126.75
2022-10-26T12:08:19.543Z,100133.53
2022-10-26T12:13:58.960Z,100133.19
2022-10-26T12:17:06.549Z,100127.88
2022-10-26T12:20:04.360Z,100127.56
2022-10-26T12:22:37.449Z,100126.00
2022-10-26T12:25:15.116Z,100124.13
2022-10-26T12:27:42.336Z,100127.44
2022-10-26T12:30:23.833Z,100124.72
2022-10-26T12:33:05.173Z,100134.59
2022-10-26T12:35:44.224Z,100125.84
2022-10-26T12:38:47.614Z,100135.47
2022-10-26T12:41:24.683Z,100135.63
2022-10-26T12:43:56.135Z,100135.78
2022-10-26T12:46:26.022Z,100134.13
2022-10-26T12:48:59.868Z,100137.56
2022-10-26T12:51:26.718Z,100137.63
2022-10-26T12:54:05.611Z,100134.78
2022-10-26T12:56:38.045Z,100140.41
2022-10-26T12:59:27.215Z,100141.25
2022-10-26T13:02:43.757Z,100149.56
2022-10-26T13:05:19.983Z,100143.66
2022-10-26T13:07:47.159Z,100131.81
2022-10-26T13:10:14.044Z,100140.84
2022-10-26T13:12:56.947Z,100140.84
2022-10-26T13:15:29.259Z,100142.22
2022-10-26T13:18:10.093Z,100143.91
2022-10-26T13:20:52.033Z,100151.50
2022-10-26T13:23:29.252Z,100151.50
2022-10-26T13:26:12.772Z,100150.97
2022-10-26T13:28:39.765Z,100146.13
2022-10-26T13:31:24.277Z,100149.72
2022-10-26T13:33:56.122Z,100151.59
2022-10-26T13:36:45.238Z,100149.75
2022-10-26T13:39:40.338Z,100153.34
2022-10-26T13:42:13.672Z,100140.97
2022-10-26T13:44:45.669Z,100154.13
2022-10-26T13:47:24.100Z,100142.22
2022-10-26T13:49:55.475Z,100145.56
2022-10-26T13:52:38.252Z,100150.50
2022-10-26T13:55:28.629Z,100147.31
2022-10-26T13:58:35.964Z,100157.69
2022-10-26T14:01:18.258Z,100153.34
2022-10-26T14:03:45.381Z,100158.84
2022-10-26T14:06:38.975Z,100160.00
2022-10-26T14:09:17.604Z,100165.69
2022-10-26T14:11:50.081Z,100161.94
2022-10-26T14:14:34.109Z,100179.41
2022-10-26T14:17:01.561Z,100176.41
2022-10-26T14:19:39.771Z,100177.75
2022-10-26T14:22:07.590Z,100182.94
2022-10-26T14:24:47.229Z,100185.66
2022-10-26T14:27:21.418Z,100183.25
2022-10-26T14:30:16.861Z,100184.06
2022-10-26T14:32:37.048Z,100185.72
2022-10-26T14:35:04.380Z,100189.84
2022-10-26T14:37:40.057Z,100198.28
2022-10-26T14:40:13.586Z,100191.28
2022-10-26T14:42:44.419Z,100204.25
2022-10-26T14:45:49.292Z,100196.72
2022-10-26T14:48:32.201Z,100202.63
2022-10-26T14:50:59.613Z,100210.88
2022-10-26T14:53:37.705Z,100199.16
2022-10-26T14:56:24.499Z,100207.06
2022-10-26T14:58:52.902Z,100212.00
2022-10-26T15:01:23.125Z,100211.69
2022-10-26T15:04:01.426Z,100204.38
2022-10-26T15:06:28.303Z,100205.50
2022-10-26T15:09:00.361Z,100209.00
2022-10-26T15:11:29.431Z,100204.38
2022-10-26T15:13:58.698Z,100203.25
2022-10-26T15:16:29.466Z,100212.81
2022-10-26T15:19:06.739Z,100217.13
2022-10-26T15:21:42.852Z,100225.56
2022-10-26T15:24:20.927Z,100230.06
2022-10-26T15:26:48.233Z,100229.16
2022-10-26T15:29:38.958Z,100245.50
2022-10-26T15:32:31.889Z,100243.84
2022-10-26T15:35:17.707Z,100236.13
2022-10-26T15:37:48.974Z,100238.56
2022-10-26T15:40:16.606Z,100243.13
2022-10-26T15:42:45.531Z,100248.97
2022-10-26T15:45:24.065Z,100255.97
2022-10-26T15:47:53.163Z,100258.00
2022-10-26T15:50:23.866Z,100262.28
2022-10-26T15:53:00.494Z,100265.34
2022-10-26T15:55:30.130Z,100260.31
2022-10-26T15:57:57.182Z,100260.81
2022-10-26T16:00:24.113Z,100259.38
2022-10-26T16:02:51.115Z,100266.53
2022-10-26T16:05:18.217Z,100257.75
2022-10-26T16:07:47.817Z,100258.69
2022-10-26T16:10:23.347Z,100252.88
2022-10-26T16:12:51.475Z,100261.56
2022-10-26T16:15:22.772Z,100269.53
2022-10-26T16:17:50.920Z,100268.22
2022-10-26T16:20:24.288Z,100273.97
2022-10-26T16:22:53.401Z,100271.34
2022-10-26T16:25:25.667Z,100277.41
2022-10-26T16:27:54.992Z,100282.06
2022-10-26T16:30:24.870Z,100286.25
2022-10-26T16:32:55.169Z,100288.25
2022-10-26T16:35:22.154Z,100285.44
2022-10-26T16:37:49.300Z,100292.88
2022-10-26T16:40:16.293Z,100294.91
2022-10-26T16:42:44.565Z,100289.38
2022-10-26T16:45:16.021Z,100290.31
2022-10-26T16:47:43.039Z,100294.00
2022-10-26T16:50:12.625Z,100295.53
2022-10-26T16:52:40.077Z,100303.88
2022-10-26T16:55:09.055Z,100306.25
2022-10-26T16:57:36.986Z,100303.19
2022-10-26T17:00:06.925Z,100304.50
2022-10-26T17:02:34.011Z,100314.16
2022-10-26T17:05:04.233Z,100310.88
2022-10-26T17:07:36.815Z,100311.34
2022-10-26T17:10:04.499Z,100322.63
2022-10-26T17:12:31.874Z,100326.41
2022-10-26T17:15:00.481Z,100333.94
2022-10-26T17:17:27.524Z,100329.81
2022-10-26T17:19:54.659Z,100335.72
2022-10-26T17:22:21.785Z,100346.16
2022-10-26T17:24:48.751Z,100345.59
2022-10-26T17:27:17.327Z,100345.00
2022-10-26T17:29:44.441Z,100349.22
2022-10-26T17:32:11.391Z,100355.94
2022-10-26T17:34:38.383Z,100358.25
2022-10-26T17:37:05.381Z,100368.50
2022-10-26T17:39:32.387Z,100376.03
2022-10-26T17:41:59.376Z,100383.53
2022-10-26T17:44:26.424Z,100382.94
2022-10-26T17:46:53.383Z,100383.41
2022-10-26T17:49:24.795Z,100382.00
2022-10-26T17:51:53.794Z,100395.75
2022-10-26T17:54:20.753Z,100392.47
2022-10-26T17:56:47.785Z,100396.44
2022-10-26T17:59:14.771Z,100398.31
2022-10-26T18:01:43.112Z,100400.44
2022-10-26T18:04:10.279Z,100407.94
2022-10-26T18:06:37.293Z,100404.66
2022-10-26T18:09:04.522Z,100412.19
2022-10-26T18:14:03.940Z,100410.53
2022-10-26T18:16:31.863Z,100411.59
2022-10-26T18:19:04.210Z,100423.44
2022-10-26T18:21:34.847Z,100420.75
2022-10-26T18:24:02.221Z,100424.28
2022-10-26T18:26:32.873Z,100425.94
2022-10-26T18:29:01.036Z,100437.44
2022-10-26T18:31:30.731Z,100434.50
2022-10-26T18:34:03.051Z,100440.97
2022-10-26T18:36:30.433Z,100434.75
2022-10-26T18:38:57.946Z,100429.34
2022-10-26T18:41:26.053Z,100435.81
2022-10-26T18:43:58.633Z,100428.13
2022-10-26T18:46:29.256Z,100431.06
2022-10-26T18:48:56.887Z,100429.03
2022-10-26T18:51:31.907Z,100433.63
2022-10-26T18:54:00.099Z,100431.16
2022-10-26T18:56:27.302Z,100432.22
2022-10-26T18:58:58.697Z,100433.28
2022-10-26T19:01:34.689Z,100439.13
2022-10-26T19:04:05.173Z,100443.13
2022-10-26T19:06:38.859Z,100447.13
2022-10-26T19:09:07.456Z,100450.03
2022-10-26T19:11:35.234Z,100449.19
2022-10-26T19:14:02.581Z,100448.03
2022-10-26T19:16:45.367Z,100451.78
2022-10-26T19:19:14.378Z,100458.00
2022-10-26T19:21:41.358Z,100454.50
2022-10-26T19:24:17.389Z,100446.81
2022-10-26T19:26:46.895Z,100449.75
2022-10-26T19:29:16.736Z,100456.41
2022-10-26T19:31:45.994Z,100463.94
2022-10-26T19:34:15.219Z,100460.06
2022-10-26T19:36:44.841Z,100458.38
2022-10-26T19:39:17.046Z,100459.91
2022-10-26T19:41:45.811Z,100467.38
2022-10-26T19:44:14.279Z,100469.50
2022-10-26T19:46:43.125Z,100466.44
2022-10-26T19:49:10.232Z,100471.22
2022-10-26T19:51:37.242Z,100475.75
2022-10-26T19:54:06.666Z,100474.13
2022-10-26T19:56:36.027Z,100475.63
2022-10-26T19:59:03.374Z,100477.13
2022-10-26T20:01:31.547Z,100480.25
2022-10-26T20:03:58.732Z,100488.22
2022-10-26T20:06:28.671Z,100489.34
2022-10-26T20:08:55.639Z,100489.19
2022-10-26T20:11:22.683Z,100488.78
2022-10-26T20:13:49.692Z,100489.25
2022-10-26T20:16:17.787Z,100491.31
2022-10-26T20:18:47.925Z,100492.00
2022-10-26T20:21:17.639Z,100488.91
2022-10-26T20:23:45.003Z,100499.13
2022-10-26T20:26:19.616Z,100495.81
2022-10-26T20:28:50.809Z,100498.94
2022-10-26T20:31:17.794Z,100485.28
2022-10-26T20:33:44.840Z,100491.72
2022-10-26T20:36:11.952Z,100498.41
2022-10-26T20:38:40.046Z,100497.56
2022-10-26T20:41:12.022Z,100506.72
2022-10-26T20:43:41.463Z,100505.06
2022-10-26T20:46:23.781Z,100508.78
2022-10-26T20:48:53.677Z,100509.63
2022-10-26T20:51:38.532Z,100509.03
2022-10-26T20:54:17.725Z,100510.06
2022-10-26T20:56:45.678Z,100509.25
2022-10-26T20:59:36.090Z,100515.47
2022-10-26T21:02:04.223Z,100515.69
2022-10-26T21:04:31.420Z,100512.78
2022-10-26T21:06:58.374Z,100516.28
2022-10-26T21:09:26.124Z,100517.13
2022-10-26T21:11:58.272Z,100524.16
2022-10-26T21:14:25.251Z,100517.94
2022-10-26T21:16:52.166Z,100518.38
2022-10-26T21:19:19.552Z,100517.56
2022-10-26T21:21:46.657Z,100523.38
2022-10-26T21:24:13.817Z,100526.31
2022-10-26T21:26:40.792Z,100524.06
2022-10-26T21:29:07.802Z,100527.19
2022-10-26T21:31:34.867Z,100526.81
2022-10-26T21:34:02.907Z,100528.03
2022-10-26T21:36:29.941Z,100525.56
2022-10-26T21:38:56.904Z,100523.94
2022-10-26T21:44:03.200Z,100523.09
2022-10-26T21:46:40.246Z,100522.47
2022-10-26T21:49:07.294Z,100520.81
2022-10-26T21:51:35.126Z,100519.16
2022-10-26T21:54:03.628Z,100525.63
2022-10-26T21:56:30.566Z,100519.41
2022-10-26T21:59:00.330Z,100515.25
2022-10-26T22:01:27.761Z,100514.66
2022-10-26T22:03:54.995Z,100520.03
2022-10-26T22:06:22.243Z,100520.22
2022-10-26T22:08:49.366Z,100519.41
2022-10-26T22:11:19.658Z,100512.38
2022-10-26T22:13:48.643Z,100515.06
2022-10-26T22:16:20.830Z,100522.09
2022-10-26T22:18:49.166Z,100510.72
2022-10-26T22:21:18.380Z,100522.97
2022-10-26T22:23:45.863Z,100526.13
2022-10-26T22:26:25.140Z,100524.06
2022-10-26T22:28:55.399Z,100527.16
2022-10-26T22:31:32.503Z,100529.47
2022-10-26T22:34:07.831Z,100525.13
2022-10-26T22:36:35.726Z,100530.72
2022-10-26T22:39:03.452Z,100537.16
2022-10-26T22:41:30.545Z,100537.38
2022-10-26T22:43:57.552Z,100540.31
2022-10-26T22:46:27.762Z,100544.88
2022-10-26T22:49:00.412Z,100543.22
2022-10-26T22:51:33.675Z,100542.38
2022-10-26T22:54:03.490Z,100539.88
2022-10-26T22:56:32.387Z,100541.16
2022-10-26T22:59:00.006Z,100542.41
2022-10-26T23:01:33.933Z,100539.09
2022-10-26T23:04:00.934Z,100545.75
2022-10-26T23:06:30.525Z,100539.53
2022-10-26T23:08:58.097Z,100538.06
2022-10-26T23:11:28.102Z,100539.94
2022-10-26T23:13:58.023Z,100543.69
2022-10-26T23:16:25.916Z,100549.69
2022-10-26T23:18:55.536Z,100548.84
2022-10-26T23:23:51.959Z,100548.66
2022-10-26T23:26:23.553Z,100544.28
2022-10-26T23:28:50.899Z,100542.44
2022-10-26T23:31:25.653Z,100559.44
2022-10-26T23:33:54.909Z,100550.31
2022-10-26T23:36:22.739Z,100555.69
2022-10-26T23:38:49.697Z,100560.28
2022-10-26T23:41:16.709Z,100561.09
2022-10-26T23:43:43.670Z,100554.66
2022-10-26T23:46:10.637Z,100551.97
2022-10-26T23:48:37.648Z,100547.63
2022-10-26T23:51:04.830Z,100557.34
2022-10-26T23:53:31.820Z,100552.19
2022-10-26T23:55:58.871Z,100557.75
2022-10-26T23:58:25.849Z,100559.03
